createdAt,value
2022-11-24T00:01:22.754Z,12.60
2022-11-24T00:03:25.387Z,12.18
2022-11-24T00:05:28.161Z,13.88
2022-11-24T00:07:30.865Z,14.15
2022-11-24T00:09:33.520Z,9.60
2022-11-24T00:11:37.913Z,12.20
2022-11-24T00:13:41.154Z,13.18
2022-11-24T00:15:43.810Z,9.70
2022-11-24T00:17:46.362Z,10.40
2022-11-24T00:19:49.201Z,9.07
2022-11-24T00:21:51.771Z,10.30
2022-11-24T00:23:54.838Z,12.98
2022-11-24T00:26:04.583Z,14.85
2022-11-24T00:28:08.666Z,8.05
2022-11-24T00:30:12.136Z,14.50
2022-11-24T00:32:14.760Z,15.82
2022-11-24T00:34:17.358Z,18.70
2022-11-24T00:36:21.446Z,11.35
2022-11-24T00:38:24.429Z,12.27
2022-11-24T00:40:29.692Z,8.93
2022-11-24T00:42:36.210Z,14.45
2022-11-24T00:44:40.170Z,8.02
2022-11-24T00:46:42.906Z,10.40
2022-11-24T00:48:45.547Z,11.20
2022-11-24T00:50:57.022Z,9.45
2022-11-24T00:52:59.777Z,9.43
2022-11-24T00:55:02.428Z,10.75
2022-11-24T00:57:05.068Z,8.73
2022-11-24T00:59:07.750Z,11.65
2022-11-24T01:01:13.395Z,7.55
2022-11-24T01:03:16.736Z,6.40
2022-11-24T01:05:19.718Z,7.97
2022-11-24T01:07:22.319Z,8.13
2022-11-24T01:09:24.949Z,16.92
2022-11-24T01:11:29.882Z,7.53
2022-11-24T01:13:32.485Z,12.80
2022-11-24T01:15:36.450Z,10.35
2022-11-24T01:17:40.452Z,8.70
2022-11-24T01:19:43.193Z,12.70
2022-11-24T01:21:45.887Z,7.63
2022-11-24T01:23:48.540Z,12.20
2022-11-24T01:25:51.362Z,7.93
2022-11-24T01:27:54.010Z,5.68
2022-11-24T01:29:56.637Z,5.05
2022-11-24T01:31:59.259Z,8.27
2022-11-24T01:34:03.214Z,10.05
2022-11-24T01:36:06.780Z,7.00
2022-11-24T01:38:09.404Z,9.40
2022-11-24T01:40:12.774Z,5.22
2022-11-24T01:42:15.369Z,4.78
2022-11-24T01:44:23.220Z,8.05
2022-11-24T01:46:31.749Z,8.20
2022-11-24T01:48:41.002Z,6.43
2022-11-24T01:50:45.862Z,6.50
2022-11-24T01:52:50.801Z,10.10
2022-11-24T01:54:57.290Z,8.70
2022-11-24T01:57:04.029Z,3.70
2022-11-24T01:59:08.588Z,5.93
2022-11-24T02:01:12.184Z,6.80
2022-11-24T02:03:17.940Z,5.93
2022-11-24T02:05:23.664Z,4.03
2022-11-24T02:07:28.016Z,5.00
2022-11-24T02:09:35.740Z,3.40
2022-11-24T02:11:40.363Z,6.68
2022-11-24T02:13:44.552Z,7.95
2022-11-24T02:15:47.356Z,7.57
2022-11-24T02:17:50.026Z,7.05
2022-11-24T02:19:56.870Z,4.72
2022-11-24T02:21:59.801Z,5.35
2022-11-24T02:24:17.959Z,6.20
2022-11-24T02:26:28.756Z,5.80
2022-11-24T02:28:32.818Z,6.72
2022-11-24T02:30:36.202Z,11.38
2022-11-24T02:32:41.197Z,3.75
2022-11-24T02:34:43.774Z,3.85
2022-11-24T02:36:46.407Z,5.90
2022-11-24T02:38:49.036Z,5.57
2022-11-24T02:40:51.674Z,6.53
2022-11-24T02:42:58.936Z,6.22
2022-11-24T02:45:02.219Z,6.75
2022-11-24T02:47:06.774Z,7.90
2022-11-24T02:49:09.354Z,8.35
2022-11-24T02:51:12.003Z,7.90
2022-11-24T02:53:14.573Z,7.55
2022-11-24T02:55:17.272Z,6.93
2022-11-24T02:57:19.960Z,7.47
2022-11-24T02:59:24.170Z,6.68
2022-11-24T03:01:26.902Z,4.10
2022-11-24T03:03:29.651Z,8.02
2022-11-24T03:05:32.285Z,4.22
2022-11-24T03:07:34.945Z,11.63
2022-11-24T03:09:37.689Z,7.88
2022-11-24T03:11:40.492Z,4.63
2022-11-24T03:13:43.084Z,3.63
2022-11-24T03:15:47.076Z,7.50
2022-11-24T03:17:49.679Z,6.10
2022-11-24T03:19:52.267Z,7.55
2022-11-24T03:21:54.825Z,9.88
2022-11-24T03:23:57.660Z,6.65
2022-11-24T03:26:08.410Z,6.85
2022-11-24T03:28:11.032Z,8.40
2022-11-24T03:30:14.599Z,6.53
2022-11-24T03:32:18.563Z,5.97
2022-11-24T03:34:21.354Z,5.22
2022-11-24T03:36:23.981Z,3.47
2022-11-24T03:38:26.595Z,3.63
2022-11-24T03:40:29.374Z,7.70
2022-11-24T03:42:32.165Z,6.25
2022-11-24T03:44:35.001Z,5.47
2022-11-24T03:46:37.809Z,3.83
2022-11-24T03:48:41.849Z,6.47
2022-11-24T03:50:45.165Z,4.30
2022-11-24T03:52:47.773Z,7.60
2022-11-24T03:54:50.377Z,4.63
2022-11-24T03:56:52.954Z,10.15
2022-11-24T03:58:55.996Z,5.38
2022-11-24T04:00:58.725Z,8.18
2022-11-24T04:03:01.362Z,7.18
2022-11-24T04:05:06.287Z,3.83
2022-11-24T04:07:09.024Z,5.53
2022-11-24T04:09:11.664Z,5.60
2022-11-24T04:11:34.525Z,4.68
2022-11-24T04:13:36.126Z,8.50
2022-11-24T04:15:40.121Z,3.58
2022-11-24T04:17:43.018Z,6.65
2022-11-24T04:19:45.864Z,5.35
2022-11-24T04:21:49.817Z,7.55
2022-11-24T04:23:52.474Z,5.70
2022-11-24T04:25:55.082Z,7.90
2022-11-24T04:27:58.370Z,7.53
2022-11-24T04:30:01.135Z,6.32
2022-11-24T04:32:03.691Z,8.30
2022-11-24T04:34:06.287Z,4.30
2022-11-24T04:36:09.479Z,8.55
2022-11-24T04:38:13.582Z,15.35
2022-11-24T04:40:36.155Z,10.43
2022-11-24T04:42:39.029Z,15.98
2022-11-24T04:44:41.676Z,8.00
2022-11-24T04:46:44.437Z,10.57
2022-11-24T04:48:47.030Z,7.53
2022-11-24T04:50:49.647Z,8.95
2022-11-24T04:52:54.470Z,12.50
2022-11-24T04:54:58.463Z,13.02
2022-11-24T04:57:01.022Z,9.38
2022-11-24T04:59:07.968Z,13.88
2022-11-24T05:01:11.173Z,18.83
2022-11-24T05:03:13.785Z,10.60
2022-11-24T05:05:16.434Z,7.75
2022-11-24T05:07:19.688Z,20.27
2022-11-24T05:09:22.516Z,10.23
2022-11-24T05:11:25.502Z,10.50
2022-11-24T05:13:28.121Z,8.77
2022-11-24T05:15:30.764Z,8.57
2022-11-24T05:17:35.840Z,9.98
2022-11-24T05:19:38.719Z,8.73
2022-11-24T05:21:41.842Z,8.00
2022-11-24T05:23:44.716Z,9.50
2022-11-24T05:25:47.957Z,12.85
2022-11-24T05:27:52.131Z,13.45
2022-11-24T05:29:54.731Z,14.07
2022-11-24T05:31:57.325Z,16.95
2022-11-24T05:33:59.932Z,15.93
2022-11-24T05:36:03.545Z,14.30
2022-11-24T05:38:06.551Z,10.20
2022-11-24T05:40:09.822Z,12.00
2022-11-24T05:42:30.295Z,16.92
2022-11-24T05:44:34.356Z,12.32
2022-11-24T05:46:37.124Z,9.60
2022-11-24T05:48:39.840Z,11.13
2022-11-24T05:50:42.687Z,14.80
2022-11-24T05:52:45.484Z,11.88
2022-11-24T05:54:48.103Z,15.25
2022-11-24T05:56:50.665Z,10.85
2022-11-24T05:58:53.263Z,18.15
2022-11-24T06:00:57.562Z,13.50
2022-11-24T06:03:01.139Z,17.98
2022-11-24T06:05:03.935Z,15.70
2022-11-24T06:07:08.914Z,14.38
2022-11-24T06:09:11.737Z,18.95
2022-11-24T06:11:20.193Z,10.43
2022-11-24T06:13:22.938Z,14.10
2022-11-24T06:15:25.645Z,16.85
2022-11-24T06:17:29.662Z,9.40
2022-11-24T06:19:32.919Z,13.52
2022-11-24T06:21:35.557Z,9.88
2022-11-24T06:23:38.637Z,15.60
2022-11-24T06:25:41.408Z,15.25
2022-11-24T06:27:44.080Z,18.20
2022-11-24T06:29:47.534Z,36.92
2022-11-24T06:31:50.208Z,33.75
2022-11-24T06:33:54.235Z,19.13
2022-11-24T06:36:02.423Z,18.63
2022-11-24T06:38:06.149Z,20.10
2022-11-24T06:40:10.090Z,23.52
2022-11-24T06:42:12.697Z,19.42
2022-11-24T06:44:15.353Z,26.48
2022-11-24T06:46:18.074Z,18.70
2022-11-24T06:48:20.738Z,16.75
2022-11-24T06:50:27.987Z,16.88
2022-11-24T06:52:33.207Z,17.55
2022-11-24T06:54:36.155Z,17.60
2022-11-24T06:56:39.082Z,24.63
2022-11-24T06:58:42.383Z,24.65
2022-11-24T07:00:47.857Z,19.45
2022-11-24T07:02:53.382Z,24.85
2022-11-24T07:04:56.294Z,21.75
2022-11-24T07:07:00.329Z,27.90
2022-11-24T07:09:05.736Z,26.67
2022-11-24T07:11:09.473Z,21.50
2022-11-24T07:13:12.119Z,17.13
2022-11-24T07:15:14.831Z,9.02
2022-11-24T07:17:17.456Z,23.55
2022-11-24T07:19:24.488Z,8.30
2022-11-24T07:21:29.232Z,8.63
2022-11-24T07:23:33.269Z,9.40
2022-11-24T07:25:36.126Z,16.25
2022-11-24T07:27:38.753Z,8.73
2022-11-24T07:29:41.470Z,9.20
2022-11-24T07:31:45.888Z,15.32
2022-11-24T07:33:50.403Z,11.63
2022-11-24T07:35:53.142Z,8.75
2022-11-24T07:37:56.949Z,9.93
2022-11-24T07:40:00.894Z,13.93
2022-11-24T07:42:05.188Z,10.38
2022-11-24T07:44:07.869Z,12.77
2022-11-24T07:46:13.650Z,13.05
2022-11-24T07:48:16.386Z,11.98
2022-11-24T07:50:18.968Z,13.40
2022-11-24T07:52:21.536Z,18.58
2022-11-24T07:54:24.171Z,19.80
2022-11-24T07:56:28.128Z,17.98
2022-11-24T07:58:33.276Z,14.70
2022-11-24T08:00:36.060Z,16.50
2022-11-24T08:02:38.744Z,15.32
2022-11-24T08:04:41.316Z,20.02
2022-11-24T08:06:47.347Z,19.25
2022-11-24T08:08:50.490Z,27.48
2022-11-24T08:10:53.776Z,17.05
2022-11-24T08:13:01.338Z,24.33
2022-11-24T08:15:09.469Z,21.42
2022-11-24T08:17:13.700Z,14.98
2022-11-24T08:19:16.409Z,27.33
2022-11-24T08:21:19.255Z,23.42
2022-11-24T08:23:21.844Z,16.98
2022-11-24T08:25:26.708Z,22.95
2022-11-24T08:27:31.047Z,15.38
2022-11-24T08:29:35.016Z,14.75
2022-11-24T08:31:40.124Z,14.48
2022-11-24T08:33:43.695Z,12.70
2022-11-24T08:35:46.290Z,13.90
2022-11-24T08:37:48.933Z,15.90
2022-11-24T08:39:52.437Z,15.98
2022-11-24T08:41:55.091Z,9.48
2022-11-24T08:43:57.706Z,21.02
2022-11-24T08:46:02.384Z,18.95
2022-11-24T08:48:05.660Z,11.40
2022-11-24T08:50:09.005Z,14.38
2022-11-24T08:52:11.666Z,18.50
2022-11-24T08:54:15.378Z,12.60
2022-11-24T08:56:18.086Z,15.23
2022-11-24T08:58:20.683Z,15.00
2022-11-24T09:00:23.723Z,13.55
2022-11-24T09:02:27.706Z,9.13
2022-11-24T09:04:30.594Z,9.52
2022-11-24T09:06:33.256Z,16.45
2022-11-24T09:08:36.552Z,11.32
2022-11-24T09:10:39.234Z,10.52
2022-11-24T09:12:41.856Z,15.65
2022-11-24T09:14:44.433Z,10.77
2022-11-24T09:16:47.204Z,11.75
2022-11-24T09:18:58.382Z,11.75
2022-11-24T09:21:08.768Z,10.98
2022-11-24T09:23:11.357Z,10.40
2022-11-24T09:25:14.945Z,9.50
2022-11-24T09:27:17.833Z,10.93
2022-11-24T09:29:21.007Z,8.95
2022-11-24T09:31:25.175Z,11.45
2022-11-24T09:33:27.859Z,7.95
2022-11-24T09:35:31.927Z,8.95
2022-11-24T09:37:35.629Z,11.48
2022-11-24T09:39:38.291Z,7.10
2022-11-24T09:41:51.397Z,12.98
2022-11-24T09:44:01.841Z,10.70
2022-11-24T09:46:09.823Z,8.32
2022-11-24T09:48:21.716Z,8.75
2022-11-24T09:52:40.375Z,3.30
2022-11-24T09:54:50.252Z,3.85
2022-11-24T09:56:53.271Z,10.57
2022-11-24T09:59:02.687Z,5.43
2022-11-24T10:01:08.893Z,6.07
2022-11-24T10:03:18.328Z,6.07
2022-11-24T10:05:21.553Z,3.75
2022-11-24T10:07:29.905Z,6.13
2022-11-24T10:09:47.123Z,3.30
2022-11-24T10:11:59.589Z,3.92
2022-11-24T10:14:28.718Z,4.22
2022-11-24T10:16:42.011Z,3.95
2022-11-24T10:18:57.662Z,3.00
2022-11-24T10:21:11.162Z,3.55
2022-11-24T10:23:27.814Z,4.15
2022-11-24T10:25:44.015Z,5.35
2022-11-24T10:27:50.662Z,1.60
2022-11-24T10:29:53.730Z,5.00
2022-11-24T10:31:57.601Z,2.63
2022-11-24T10:34:04.544Z,3.58
2022-11-24T10:36:11.952Z,4.40
2022-11-24T10:38:34.684Z,4.50
2022-11-24T10:40:58.663Z,3.03
2022-11-24T10:43:01.670Z,2.85
2022-11-24T10:45:11.063Z,3.22
2022-11-24T10:47:19.800Z,4.82
2022-11-24T10:49:27.891Z,2.83
2022-11-24T10:51:47.644Z,2.55
2022-11-24T10:54:02.296Z,4.30
2022-11-24T10:56:06.737Z,2.40
2022-11-24T10:58:17.400Z,3.40
2022-11-24T11:00:32.876Z,4.13
2022-11-24T11:02:37.992Z,2.95
2022-11-24T11:04:40.667Z,4.18
2022-11-24T11:06:44.784Z,4.07
2022-11-24T11:08:47.642Z,4.43
2022-11-24T11:10:51.962Z,4.25
2022-11-24T11:12:56.477Z,8.70
2022-11-24T11:15:23.095Z,4.18
2022-11-24T11:17:35.780Z,5.53
2022-11-24T11:19:49.026Z,4.57
2022-11-24T11:22:01.450Z,6.18
2022-11-24T11:24:06.585Z,4.38
2022-11-24T11:26:19.841Z,10.05
2022-11-24T11:28:31.129Z,8.88
2022-11-24T11:35:21.617Z,5.90
2022-11-24T11:37:28.350Z,6.53
2022-11-24T11:39:34.802Z,8.02
2022-11-24T11:41:41.563Z,8.65
2022-11-24T11:43:48.094Z,8.68
2022-11-24T11:46:00.513Z,6.13
2022-11-24T11:48:21.259Z,9.45
2022-11-24T11:50:30.249Z,6.43
2022-11-24T11:52:44.690Z,6.32
2022-11-24T11:55:08.706Z,13.82
2022-11-24T11:57:17.303Z,6.70
2022-11-24T11:59:38.090Z,6.20
2022-11-24T12:01:56.353Z,7.72
2022-11-24T12:04:13.153Z,10.50
2022-11-24T12:06:28.737Z,7.20
2022-11-24T12:09:17.964Z,7.18
2022-11-24T12:11:14.979Z,12.15
2022-11-24T12:13:41.887Z,7.00
2022-11-24T12:15:48.829Z,8.25
2022-11-24T12:17:58.996Z,9.90
2022-11-24T12:20:18.511Z,7.88
2022-11-24T12:22:33.270Z,8.68
2022-11-24T12:24:46.457Z,7.45
2022-11-24T12:26:53.823Z,14.25
2022-11-24T12:29:08.747Z,9.93
2022-11-24T12:31:20.800Z,10.32
2022-11-24T12:33:36.331Z,7.53
2022-11-24T12:35:41.905Z,11.27
2022-11-24T12:37:55.746Z,9.65
2022-11-24T12:40:06.127Z,7.40
2022-11-24T12:42:13.578Z,9.23
2022-11-24T12:44:31.781Z,8.75
2022-11-24T12:46:46.427Z,6.57
2022-11-24T12:48:58.437Z,8.40
2022-11-24T12:51:02.332Z,6.45
2022-11-24T12:53:11.325Z,7.57
2022-11-24T12:55:18.216Z,8.00
2022-11-24T12:57:27.411Z,6.30
2022-11-24T12:59:40.700Z,13.63
2022-11-24T13:01:54.594Z,9.23
2022-11-24T13:04:11.544Z,7.60
2022-11-24T13:06:18.563Z,10.15
2022-11-24T13:08:22.204Z,11.05
2022-11-24T13:10:54.333Z,5.65
2022-11-24T13:12:57.636Z,13.57
2022-11-24T13:15:00.305Z,9.95
2022-11-24T13:17:43.220Z,12.02
2022-11-24T13:19:47.324Z,11.35
2022-11-24T13:22:01.212Z,10.20
2022-11-24T13:24:05.766Z,9.70
2022-11-24T13:26:30.420Z,12.63
2022-11-24T13:29:08.940Z,16.42
2022-11-24T13:31:23.976Z,7.70
2022-11-24T13:33:38.749Z,8.88
2022-11-24T13:36:02.281Z,12.98
2022-11-24T13:38:42.478Z,10.77
2022-11-24T13:41:06.290Z,10.23
2022-11-24T13:43:21.189Z,10.68
2022-11-24T13:45:51.373Z,12.60
2022-11-24T13:47:53.973Z,8.23
2022-11-24T13:49:57.032Z,11.45
2022-11-24T13:52:34.845Z,7.75
2022-11-24T13:54:42.243Z,9.40
2022-11-24T13:56:44.849Z,6.38
2022-11-24T13:58:50.265Z,10.57
2022-11-24T14:01:12.355Z,14.30
2022-11-24T14:05:28.488Z,11.82
2022-11-24T14:07:32.732Z,8.48
2022-11-24T14:09:38.429Z,9.73
2022-11-24T14:11:43.041Z,10.13
2022-11-24T14:13:46.381Z,9.73
2022-11-24T14:16:00.800Z,9.70
2022-11-24T14:18:17.684Z,7.65
2022-11-24T14:20:24.890Z,7.35
2022-11-24T14:22:34.615Z,12.27
2022-11-24T14:24:41.558Z,8.75
2022-11-24T14:26:48.096Z,7.93
2022-11-24T14:28:51.358Z,10.90
2022-11-24T14:31:08.190Z,10.75
2022-11-24T14:33:12.835Z,13.10
2022-11-24T14:35:24.802Z,9.10
2022-11-24T14:37:27.654Z,7.63
2022-11-24T14:39:31.275Z,8.63
2022-11-24T14:41:34.926Z,15.48
2022-11-24T14:43:38.940Z,9.85
2022-11-24T14:45:49.273Z,11.40
2022-11-24T14:47:52.211Z,16.08
2022-11-24T14:49:56.384Z,9.93
2022-11-24T14:52:03.148Z,10.68
2022-11-24T14:54:08.029Z,7.78
2022-11-24T14:56:22.318Z,7.60
2022-11-24T14:58:36.504Z,17.05
2022-11-24T15:00:43.442Z,11.50
2022-11-24T15:02:49.654Z,12.88
2022-11-24T15:05:03.335Z,14.98
2022-11-24T15:07:14.953Z,11.23
2022-11-24T15:09:25.873Z,12.77
2022-11-24T15:11:31.310Z,10.68
2022-11-24T15:13:38.077Z,16.60
2022-11-24T15:15:40.957Z,11.02
2022-11-24T15:17:49.184Z,12.10
2022-11-24T15:19:57.053Z,5.38
2022-11-24T15:21:59.678Z,7.55
2022-11-24T15:24:07.390Z,8.63
2022-11-24T15:26:30.775Z,15.18
2022-11-24T15:28:34.752Z,8.75
2022-11-24T15:30:38.132Z,17.35
2022-11-24T15:32:53.654Z,14.57
2022-11-24T15:34:56.259Z,7.53
2022-11-24T15:36:58.845Z,14.35
2022-11-24T15:39:01.479Z,13.13
2022-11-24T15:41:17.218Z,15.55
2022-11-24T15:43:28.752Z,14.88
2022-11-24T15:45:31.366Z,12.20
2022-11-24T15:47:34.014Z,8.52
2022-11-24T15:49:37.984Z,10.45
2022-11-24T15:51:44.236Z,11.10
2022-11-24T15:53:49.058Z,10.40
2022-11-24T15:55:52.032Z,16.02
2022-11-24T15:57:54.595Z,10.23
2022-11-24T15:59:57.180Z,13.80
2022-11-24T16:01:59.847Z,11.15
2022-11-24T16:04:02.577Z,19.27
2022-11-24T16:06:06.985Z,12.65
2022-11-24T16:08:13.726Z,10.20
2022-11-24T16:10:24.667Z,14.50
2022-11-24T16:12:27.343Z,14.07
2022-11-24T16:14:29.979Z,24.55
2022-11-24T16:16:32.667Z,15.45
2022-11-24T16:18:39.269Z,23.63
2022-11-24T16:20:41.980Z,15.20
2022-11-24T16:22:46.247Z,24.33
2022-11-24T16:24:48.806Z,25.30
2022-11-24T16:26:51.475Z,22.90
2022-11-24T16:28:54.106Z,29.90
2022-11-24T16:30:56.987Z,30.08
2022-11-24T16:32:59.600Z,21.65
2022-11-24T16:35:02.241Z,33.20
2022-11-24T16:37:04.861Z,33.78
2022-11-24T16:39:08.807Z,36.38
2022-11-24T16:41:11.420Z,32.45
2022-11-24T16:43:14.051Z,35.83
2022-11-24T16:45:17.980Z,54.33
2022-11-24T16:47:21.329Z,45.03
2022-11-24T16:49:24.081Z,26.15
2022-11-24T16:51:30.119Z,28.30
2022-11-24T16:53:37.380Z,28.25
2022-11-24T16:55:41.392Z,24.13
2022-11-24T16:57:44.022Z,33.60
2022-11-24T16:59:46.981Z,37.78
2022-11-24T17:01:50.766Z,42.47
2022-11-24T17:03:53.499Z,30.98
2022-11-24T17:06:00.317Z,34.20
2022-11-24T17:08:02.919Z,31.50
2022-11-24T17:10:06.806Z,32.47
2022-11-24T17:12:10.768Z,28.30
2022-11-24T17:14:13.624Z,26.40
2022-11-24T17:16:19.187Z,27.73
2022-11-24T17:18:25.592Z,23.60
2022-11-24T17:20:28.494Z,36.95
2022-11-24T17:22:31.073Z,37.25
2022-11-24T17:24:34.046Z,44.28
2022-11-24T17:26:36.792Z,44.60
2022-11-24T17:28:41.062Z,31.45
2022-11-24T17:30:43.670Z,25.85
2022-11-24T17:32:46.336Z,33.08
2022-11-24T17:34:49.069Z,30.95
2022-11-24T17:36:51.776Z,23.55
2022-11-24T17:38:56.883Z,18.00
2022-11-24T17:40:59.784Z,21.65
2022-11-24T17:43:02.844Z,18.90
2022-11-24T17:45:10.395Z,20.35
2022-11-24T17:47:12.988Z,22.42
2022-11-24T17:49:15.602Z,14.70
2022-11-24T17:51:19.689Z,20.35
2022-11-24T17:53:22.251Z,17.48
2022-11-24T17:55:24.846Z,16.05
2022-11-24T17:57:27.452Z,30.85
2022-11-24T17:59:30.045Z,32.38
2022-11-24T18:01:34.163Z,28.95
2022-11-24T18:03:36.809Z,21.95
2022-11-24T18:05:39.479Z,22.58
2022-11-24T18:07:42.156Z,18.17
2022-11-24T18:09:44.763Z,20.98
2022-11-24T18:11:47.890Z,22.48
2022-11-24T18:14:01.126Z,18.55
2022-11-24T18:16:06.708Z,24.58
2022-11-24T18:18:12.895Z,17.98
2022-11-24T18:20:15.691Z,20.90
2022-11-24T18:22:19.124Z,22.33
2022-11-24T18:24:26.334Z,26.25
2022-11-24T18:26:28.938Z,21.27
2022-11-24T18:28:31.963Z,28.35
2022-11-24T18:30:34.544Z,22.08
2022-11-24T18:32:37.200Z,19.20
2022-11-24T18:34:41.318Z,20.70
2022-11-24T18:36:45.090Z,24.65
2022-11-24T18:38:47.727Z,34.10
2022-11-24T18:40:53.911Z,40.92
2022-11-24T18:42:56.487Z,48.08
2022-11-24T18:44:59.161Z,47.83
2022-11-24T18:47:01.896Z,53.47
2022-11-24T18:49:05.366Z,46.90
2022-11-24T18:51:14.242Z,32.35
2022-11-24T18:53:17.078Z,32.65
2022-11-24T18:55:19.757Z,42.15
2022-11-24T18:57:22.367Z,42.03
2022-11-24T18:59:25.660Z,29.05
2022-11-24T19:01:29.803Z,30.38
2022-11-24T19:03:32.489Z,37.15
2022-11-24T19:05:35.740Z,25.98
2022-11-24T19:07:39.757Z,25.00
2022-11-24T19:09:42.439Z,22.60
2022-11-24T19:11:46.791Z,21.17
2022-11-24T19:13:49.413Z,24.48
2022-11-24T19:15:52.111Z,19.30
2022-11-24T19:17:54.700Z,20.52
2022-11-24T19:19:57.408Z,23.88
2022-11-24T19:22:00.079Z,20.52
2022-11-24T19:24:05.820Z,15.82
2022-11-24T19:26:08.903Z,18.55
2022-11-24T19:28:12.664Z,14.35
2022-11-24T19:30:15.848Z,19.10
2022-11-24T19:32:19.459Z,18.25
2022-11-24T19:34:22.081Z,27.42
2022-11-24T19:36:26.019Z,24.85
2022-11-24T19:38:30.240Z,20.50
2022-11-24T19:40:34.308Z,21.55
2022-11-24T19:42:37.008Z,27.42
2022-11-24T19:44:39.584Z,19.73
2022-11-24T19:46:42.438Z,16.88
2022-11-24T19:48:48.465Z,18.00
2022-11-24T19:50:59.386Z,23.48
2022-11-24T19:53:01.993Z,20.00
2022-11-24T19:55:04.996Z,22.25
2022-11-24T19:57:08.948Z,22.48
2022-11-24T19:59:14.194Z,22.00
2022-11-24T20:01:18.620Z,19.83
2022-11-24T20:03:21.418Z,20.17
2022-11-24T20:05:26.031Z,22.75
2022-11-24T20:07:28.695Z,26.08
2022-11-24T20:09:31.427Z,19.17
2022-11-24T20:11:34.032Z,20.73
2022-11-24T20:13:39.879Z,26.75
2022-11-24T20:15:42.480Z,29.85
2022-11-24T20:17:45.119Z,25.23
2022-11-24T20:19:47.897Z,28.73
2022-11-24T20:21:51.824Z,29.73
2022-11-24T20:23:57.544Z,35.80
2022-11-24T20:26:04.248Z,39.13
2022-11-24T20:28:06.874Z,37.88
2022-11-24T20:30:11.971Z,34.83
2022-11-24T20:32:19.357Z,31.73
2022-11-24T20:34:23.015Z,25.58
2022-11-24T20:36:27.769Z,29.30
2022-11-24T20:38:30.938Z,26.08
2022-11-24T20:40:33.608Z,26.60
2022-11-24T20:42:37.356Z,23.30
2022-11-24T20:44:40.013Z,28.33
2022-11-24T20:46:45.817Z,19.63
2022-11-24T20:48:48.595Z,21.23
2022-11-24T20:50:51.655Z,23.92
2022-11-24T20:52:54.340Z,20.52
2022-11-24T20:54:58.245Z,19.10
2022-11-24T20:57:00.886Z,20.95
2022-11-24T20:59:04.602Z,20.42
2022-11-24T21:01:08.539Z,26.55
2022-11-24T21:03:12.626Z,32.42
2022-11-24T21:05:15.385Z,27.92
2022-11-24T21:07:18.220Z,32.85
2022-11-24T21:09:21.042Z,22.20
2022-11-24T21:11:24.866Z,26.05
2022-11-24T21:13:29.422Z,28.45
2022-11-24T21:15:32.069Z,33.20
2022-11-24T21:17:34.734Z,27.23
2022-11-24T21:19:38.662Z,33.30
2022-11-24T21:21:42.756Z,28.42
2022-11-24T21:23:46.051Z,31.08
2022-11-24T21:25:48.645Z,35.22
2022-11-24T21:27:51.299Z,34.78
2022-11-24T21:29:53.870Z,31.98
2022-11-24T21:31:56.461Z,32.15
2022-11-24T21:33:59.210Z,30.73
2022-11-24T21:36:04.379Z,32.15
2022-11-24T21:38:06.954Z,30.63
2022-11-24T21:40:10.391Z,33.45
2022-11-24T21:42:13.107Z,30.40
2022-11-24T21:44:16.006Z,36.45
2022-11-24T21:46:18.831Z,33.33
2022-11-24T21:48:21.676Z,36.10
2022-11-24T21:50:24.540Z,31.30
2022-11-24T21:52:28.755Z,35.70
2022-11-24T21:54:31.512Z,36.78
2022-11-24T21:56:34.215Z,32.08
2022-11-24T21:58:37.355Z,30.20
2022-11-24T22:00:40.027Z,34.75
2022-11-24T22:02:45.472Z,30.95
2022-11-24T22:04:48.171Z,30.67
2022-11-24T22:06:50.771Z,30.70
2022-11-24T22:08:55.944Z,28.02
2022-11-24T22:11:02.620Z,30.52
2022-11-24T22:13:05.222Z,29.35
2022-11-24T22:15:08.458Z,27.52
2022-11-24T22:17:13.323Z,30.63
2022-11-24T22:19:15.934Z,31.75
2022-11-24T22:21:22.371Z,33.78
2022-11-24T22:23:25.297Z,31.77
2022-11-24T22:25:29.238Z,26.63
2022-11-24T22:27:31.895Z,27.40
2022-11-24T22:29:34.510Z,27.58
2022-11-24T22:31:37.142Z,27.67
2022-11-24T22:33:40.096Z,30.80
2022-11-24T22:35:42.713Z,26.95
2022-11-24T22:37:45.286Z,23.10
2022-11-24T22:39:47.876Z,26.35
2022-11-24T22:41:51.853Z,29.13
2022-11-24T22:43:54.728Z,26.30
2022-11-24T22:45:57.418Z,21.67
2022-11-24T22:48:00.033Z,25.02
2022-11-24T22:50:02.664Z,25.80
2022-11-24T22:52:05.377Z,23.95
2022-11-24T22:54:07.931Z,22.40
2022-11-24T22:56:12.084Z,22.48
2022-11-24T22:58:16.062Z,25.35
2022-11-24T23:00:19.470Z,29.25
2022-11-24T23:02:22.129Z,27.15
2022-11-24T23:04:24.842Z,24.40
2022-11-24T23:06:29.644Z,19.65
2022-11-24T23:08:33.985Z,22.48
2022-11-24T23:10:36.626Z,23.17
2022-11-24T23:12:39.226Z,22.67
2022-11-24T23:14:43.176Z,22.60
2022-11-24T23:16:45.966Z,21.83
2022-11-24T23:18:53.779Z,26.13
2022-11-24T23:20:56.956Z,20.23
2022-11-24T23:22:59.531Z,30.55
2022-11-24T23:25:02.115Z,27.15
2022-11-24T23:27:05.236Z,29.13
2022-11-24T23:29:08.535Z,23.95
2022-11-24T23:31:14.735Z,26.55
2022-11-24T23:33:17.351Z,21.77
2022-11-24T23:35:20.022Z,23.00
2022-11-24T23:37:30.216Z,19.35
2022-11-24T23:39:45.192Z,17.55
2022-11-24T23:41:47.807Z,20.88
2022-11-24T23:43:50.706Z,15.55
2022-11-24T23:45:53.636Z,15.68
2022-11-24T23:47:57.622Z,16.55
2022-11-24T23:50:00.212Z,15.85
2022-11-24T23:52:02.823Z,16.50
2022-11-24T23:54:08.917Z,17.48
2022-11-24T23:56:14.197Z,16.83
2022-11-24T23:58:16.829Z,19.50
